createdAt,value
2019-03-24T00:01:56.826Z,25.92
2019-03-24T00:04:25.106Z,29.55
2019-03-24T00:06:53.407Z,31.45
2019-03-24T00:09:21.983Z,35.65
2019-03-24T00:11:50.465Z,38.70
2019-03-24T00:14:19.006Z,38.58
2019-03-24T00:16:47.501Z,43.02
2019-03-24T00:19:16.409Z,44.40
2019-03-24T00:21:44.765Z,47.83
2019-03-24T00:24:13.253Z,42.88
2019-03-24T00:26:41.558Z,47.48
2019-03-24T00:29:10.102Z,45.43
2019-03-24T00:31:38.590Z,47.35
2019-03-24T00:34:06.963Z,51.23
2019-03-24T00:36:35.457Z,51.42
2019-03-24T00:39:05.236Z,52.03
2019-03-24T00:41:33.673Z,55.90
2019-03-24T00:44:02.074Z,55.70
2019-03-24T00:46:30.641Z,56.28
2019-03-24T00:48:59.287Z,53.35
2019-03-24T00:51:27.666Z,55.58
2019-03-24T00:53:56.229Z,58.70
2019-03-24T00:56:24.919Z,56.98
2019-03-24T00:58:53.519Z,57.23
2019-03-24T01:01:21.828Z,55.43
2019-03-24T01:03:50.206Z,57.58
2019-03-24T01:06:19.000Z,56.68
2019-03-24T01:08:47.471Z,57.70
2019-03-24T01:11:16.239Z,55.10
2019-03-24T01:13:45.552Z,58.02
2019-03-24T01:16:14.333Z,57.48
2019-03-24T01:18:43.197Z,53.08
2019-03-24T01:21:13.980Z,55.80
2019-03-24T01:23:41.962Z,59.05
2019-03-24T01:26:10.379Z,57.80
2019-03-24T01:28:38.836Z,55.28
2019-03-24T01:31:07.315Z,55.45
2019-03-24T01:33:35.608Z,54.05
2019-03-24T01:36:04.130Z,54.80
2019-03-24T01:38:32.406Z,52.58
2019-03-24T01:41:00.683Z,54.95
2019-03-24T01:43:30.897Z,51.37
2019-03-24T01:45:59.317Z,50.50
2019-03-24T01:48:28.018Z,53.75
2019-03-24T01:50:56.452Z,50.67
2019-03-24T01:53:25.142Z,53.15
2019-03-24T01:55:53.893Z,53.02
2019-03-24T01:58:22.277Z,50.75
2019-03-24T02:00:51.144Z,53.35
2019-03-24T02:03:19.811Z,51.83
2019-03-24T02:05:48.439Z,50.85
2019-03-24T02:08:17.008Z,49.15
2019-03-24T02:10:45.497Z,54.05
2019-03-24T02:13:14.101Z,51.23
2019-03-24T02:15:42.503Z,50.35
2019-03-24T02:18:10.795Z,50.25
2019-03-24T02:20:39.289Z,49.35
2019-03-24T02:23:07.588Z,50.90
2019-03-24T02:25:36.240Z,47.10
2019-03-24T02:28:05.130Z,47.60
2019-03-24T02:30:33.632Z,46.60
2019-03-24T02:33:01.982Z,47.50
2019-03-24T02:35:30.738Z,50.48
2019-03-24T02:37:59.358Z,49.35
2019-03-24T02:40:28.177Z,50.52
2019-03-24T02:42:56.691Z,48.00
2019-03-24T02:45:25.257Z,47.40
2019-03-24T02:47:53.835Z,57.80
2019-03-24T02:50:22.353Z,52.62
2019-03-24T02:52:50.955Z,45.73
2019-03-24T02:55:19.770Z,48.28
2019-03-24T02:57:48.286Z,50.38
2019-03-24T03:00:16.648Z,49.42
2019-03-24T03:02:45.528Z,48.30
2019-03-24T03:05:14.147Z,48.48
2019-03-24T03:07:42.858Z,49.15
2019-03-24T03:10:11.610Z,47.83
2019-03-24T03:12:40.130Z,47.73
2019-03-24T03:15:09.184Z,48.00
2019-03-24T03:17:38.529Z,49.30
2019-03-24T03:20:07.597Z,45.55
2019-03-24T03:22:36.082Z,46.23
2019-03-24T03:25:08.088Z,49.27
2019-03-24T03:27:36.619Z,45.88
2019-03-24T03:30:07.061Z,46.53
2019-03-24T03:32:35.709Z,44.83
2019-03-24T03:35:06.221Z,45.98
2019-03-24T03:37:34.645Z,48.68
2019-03-24T03:40:04.235Z,47.93
2019-03-24T03:42:32.748Z,49.40
2019-03-24T03:45:01.993Z,48.02
2019-03-24T03:47:30.670Z,45.12
2019-03-24T03:49:59.195Z,47.45
2019-03-24T03:52:27.690Z,47.17
2019-03-24T03:54:56.004Z,47.88
2019-03-24T03:57:24.400Z,49.93
2019-03-24T03:59:52.898Z,50.67
2019-03-24T04:02:21.233Z,46.90
2019-03-24T04:04:49.588Z,43.90
2019-03-24T04:07:18.296Z,45.55
2019-03-24T04:09:46.793Z,43.70
2019-03-24T04:12:15.615Z,43.48
2019-03-24T04:14:44.207Z,44.70
2019-03-24T04:17:12.914Z,45.20
2019-03-24T04:19:42.262Z,45.75
2019-03-24T04:22:10.800Z,41.80
2019-03-24T04:24:39.271Z,43.08
2019-03-24T04:27:07.975Z,41.20
2019-03-24T04:29:36.554Z,42.58
2019-03-24T04:32:05.519Z,40.03
2019-03-24T04:34:34.069Z,40.67
2019-03-24T04:37:02.714Z,40.83
2019-03-24T04:39:31.348Z,40.00
2019-03-24T04:41:59.836Z,38.88
2019-03-24T04:44:28.937Z,41.42
2019-03-24T04:46:58.218Z,37.90
2019-03-24T04:49:26.682Z,38.88
2019-03-24T04:51:55.457Z,38.70
2019-03-24T04:54:24.002Z,39.27
2019-03-24T04:56:52.534Z,39.10
2019-03-24T04:59:20.937Z,39.53
2019-03-24T05:01:49.650Z,38.60
2019-03-24T05:04:18.439Z,37.83
2019-03-24T05:06:47.135Z,39.15
2019-03-24T05:09:15.682Z,40.25
2019-03-24T05:11:44.684Z,40.50
2019-03-24T05:14:13.202Z,39.70
2019-03-24T05:16:41.659Z,39.15
2019-03-24T05:19:10.283Z,39.53
2019-03-24T05:21:39.766Z,37.98
2019-03-24T05:24:08.216Z,40.50
2019-03-24T05:26:38.287Z,41.08
2019-03-24T05:31:34.815Z,39.23
2019-03-24T05:34:03.421Z,40.73
2019-03-24T05:36:32.108Z,40.17
2019-03-24T05:39:00.908Z,41.53
2019-03-24T05:41:29.337Z,40.90
2019-03-24T05:43:59.410Z,39.15
2019-03-24T05:48:55.674Z,37.73
2019-03-24T05:51:24.330Z,38.38
2019-03-24T05:53:53.005Z,40.70
2019-03-24T05:56:21.418Z,39.50
2019-03-24T05:58:51.570Z,40.00
2019-03-24T06:01:20.056Z,40.03
2019-03-24T06:03:48.492Z,41.13
2019-03-24T06:06:16.913Z,39.85
2019-03-24T06:08:45.391Z,39.83
2019-03-24T06:11:13.944Z,40.28
2019-03-24T06:13:42.813Z,41.25
2019-03-24T06:16:11.203Z,40.78
2019-03-24T06:18:39.694Z,41.20
2019-03-24T06:21:08.323Z,40.67
2019-03-24T06:23:37.495Z,42.45
2019-03-24T06:26:06.150Z,45.53
2019-03-24T06:28:34.640Z,44.95
2019-03-24T06:31:03.015Z,43.95
2019-03-24T06:33:31.557Z,45.43
2019-03-24T06:36:00.091Z,43.73
2019-03-24T06:38:29.228Z,45.50
2019-03-24T06:40:57.767Z,45.93
2019-03-24T06:43:26.243Z,45.67
2019-03-24T06:45:54.633Z,45.15
2019-03-24T06:48:23.153Z,44.00
2019-03-24T06:50:51.698Z,44.58
2019-03-24T06:53:20.128Z,44.93
2019-03-24T06:55:50.354Z,45.33
2019-03-24T06:58:18.767Z,44.30
2019-03-24T07:00:47.117Z,44.20
2019-03-24T07:03:16.096Z,45.70
2019-03-24T07:05:44.653Z,45.00
2019-03-24T07:08:13.178Z,45.73
2019-03-24T07:10:42.823Z,44.90
2019-03-24T07:13:11.289Z,47.60
2019-03-24T07:15:39.735Z,47.40
2019-03-24T07:18:08.932Z,48.83
2019-03-24T07:20:37.604Z,45.50
2019-03-24T07:23:06.214Z,44.50
2019-03-24T07:25:34.799Z,49.20
2019-03-24T07:28:03.295Z,47.75
2019-03-24T07:30:31.743Z,46.95
2019-03-24T07:33:00.371Z,45.60
2019-03-24T07:35:28.902Z,44.77
2019-03-24T07:37:57.552Z,47.33
2019-03-24T07:40:26.057Z,44.20
2019-03-24T07:42:54.742Z,45.15
2019-03-24T07:45:23.452Z,48.65
2019-03-24T07:47:52.466Z,47.67
2019-03-24T07:50:21.326Z,48.00
2019-03-24T07:52:49.916Z,49.15
2019-03-24T07:55:18.577Z,48.68
2019-03-24T07:57:47.245Z,49.15
2019-03-24T08:00:18.889Z,46.95
2019-03-24T08:02:51.501Z,46.73
2019-03-24T08:05:20.022Z,44.93
2019-03-24T08:07:48.503Z,46.08
2019-03-24T08:10:16.901Z,46.95
2019-03-24T08:12:45.567Z,46.75
2019-03-24T08:15:17.257Z,44.70
2019-03-24T08:17:45.804Z,44.42
2019-03-24T08:20:15.188Z,44.13
2019-03-24T08:22:43.653Z,44.65
2019-03-24T08:25:11.997Z,41.83
2019-03-24T08:27:40.693Z,42.08
2019-03-24T08:30:10.420Z,42.23
2019-03-24T08:32:41.956Z,43.10
2019-03-24T08:35:10.413Z,45.12
2019-03-24T08:37:38.891Z,44.50
2019-03-24T08:40:07.367Z,42.50
2019-03-24T08:42:35.796Z,42.95
2019-03-24T08:45:05.091Z,44.27
2019-03-24T08:47:33.596Z,42.97
2019-03-24T08:50:01.953Z,43.87
2019-03-24T08:52:30.492Z,44.30
2019-03-24T08:54:59.957Z,47.53
2019-03-24T08:57:28.672Z,45.70
2019-03-24T08:59:57.100Z,44.80
2019-03-24T09:02:25.551Z,48.38
2019-03-24T09:04:54.021Z,46.28
2019-03-24T09:07:22.444Z,46.00
2019-03-24T09:09:50.973Z,41.45
2019-03-24T09:12:19.250Z,37.60
2019-03-24T09:14:47.526Z,40.70
2019-03-24T09:17:16.431Z,38.15
2019-03-24T09:19:44.825Z,40.70
2019-03-24T09:22:13.357Z,39.88
2019-03-24T09:24:42.216Z,39.00
2019-03-24T09:27:10.761Z,39.55
2019-03-24T09:29:39.108Z,37.70
2019-03-24T09:32:07.650Z,37.73
2019-03-24T09:34:36.236Z,39.15
2019-03-24T09:37:04.772Z,38.00
2019-03-24T09:39:33.383Z,33.08
2019-03-24T09:42:01.734Z,32.67
2019-03-24T09:44:30.129Z,33.67
2019-03-24T09:46:58.688Z,34.23
2019-03-24T09:49:26.960Z,35.35
2019-03-24T09:51:55.250Z,35.83
2019-03-24T09:54:23.574Z,35.83
2019-03-24T09:56:51.893Z,35.05
2019-03-24T09:59:20.266Z,33.35
2019-03-24T10:01:49.038Z,32.40
2019-03-24T10:04:17.430Z,32.40
2019-03-24T10:06:45.773Z,31.40
2019-03-24T10:09:14.214Z,32.50
2019-03-24T10:11:42.831Z,33.10
2019-03-24T10:14:11.247Z,34.58
2019-03-24T10:16:39.574Z,31.30
2019-03-24T10:19:13.955Z,29.72
2019-03-24T10:21:38.210Z,30.20
2019-03-24T10:24:07.947Z,26.90
2019-03-24T10:26:36.549Z,28.15
2019-03-24T10:29:04.989Z,27.15
2019-03-24T10:31:33.408Z,28.07
2019-03-24T10:34:01.776Z,30.30
2019-03-24T10:36:30.070Z,30.37
2019-03-24T10:38:58.565Z,30.70
2019-03-24T10:41:26.938Z,32.55
2019-03-24T10:43:55.409Z,33.15
2019-03-24T10:46:23.988Z,33.63
2019-03-24T10:48:52.426Z,34.83
2019-03-24T10:51:20.921Z,34.23
2019-03-24T10:53:49.328Z,34.43
2019-03-24T10:56:17.966Z,34.23
2019-03-24T10:58:46.415Z,33.28
2019-03-24T11:01:15.157Z,33.95
2019-03-24T11:03:43.985Z,32.80
2019-03-24T11:06:12.487Z,33.10
2019-03-24T11:08:40.938Z,32.53
2019-03-24T11:11:09.363Z,33.90
2019-03-24T11:13:37.882Z,33.20
2019-03-24T11:16:06.213Z,34.55
2019-03-24T11:18:34.794Z,32.73
2019-03-24T11:21:03.176Z,32.73
2019-03-24T11:23:31.489Z,32.42
2019-03-24T11:26:01.427Z,33.65
2019-03-24T11:30:57.756Z,32.53
2019-03-24T11:33:29.555Z,29.77
2019-03-24T11:35:57.758Z,30.12
2019-03-24T11:38:26.648Z,30.10
2019-03-24T11:40:55.353Z,30.32
2019-03-24T11:43:25.609Z,28.45
2019-03-24T11:45:54.382Z,29.00
2019-03-24T11:48:22.746Z,30.37
2019-03-24T11:50:51.428Z,30.02
2019-03-24T11:53:19.885Z,28.38
2019-03-24T11:55:48.448Z,28.77
2019-03-24T11:58:16.961Z,28.50
2019-03-24T12:00:45.684Z,25.82
2019-03-24T12:03:14.141Z,27.90
2019-03-24T12:05:42.453Z,26.80
2019-03-24T12:08:10.783Z,26.68
2019-03-24T12:10:39.465Z,27.07
2019-03-24T12:13:07.811Z,27.32
2019-03-24T12:15:36.189Z,27.65
2019-03-24T12:18:04.690Z,24.95
2019-03-24T12:20:33.007Z,23.52
2019-03-24T12:23:01.593Z,23.52
2019-03-24T12:25:30.051Z,22.75
2019-03-24T12:27:58.697Z,24.25
2019-03-24T12:30:27.303Z,25.35
2019-03-24T12:32:56.066Z,25.00
2019-03-24T12:35:24.489Z,25.32
2019-03-24T12:37:52.816Z,24.98
2019-03-24T12:40:21.177Z,24.15
2019-03-24T12:42:49.669Z,25.15
2019-03-24T12:45:18.317Z,24.95
2019-03-24T12:47:47.148Z,24.55
2019-03-24T12:50:15.803Z,23.15
2019-03-24T12:52:44.272Z,24.35
2019-03-24T12:55:12.822Z,25.10
2019-03-24T12:57:41.478Z,24.57
2019-03-24T13:00:11.948Z,24.35
2019-03-24T13:02:40.422Z,24.05
2019-03-24T13:05:09.096Z,24.90
2019-03-24T13:07:37.613Z,24.30
2019-03-24T13:10:06.707Z,24.95
2019-03-24T13:12:35.169Z,25.62
2019-03-24T13:15:05.713Z,25.45
2019-03-24T13:17:34.360Z,25.62
2019-03-24T13:20:03.061Z,24.57
2019-03-24T13:22:31.735Z,24.92
2019-03-24T13:25:00.453Z,26.93
2019-03-24T13:27:28.803Z,26.25
2019-03-24T13:29:57.183Z,26.25
2019-03-24T13:32:25.732Z,25.72
2019-03-24T13:34:54.163Z,25.12
2019-03-24T13:37:25.750Z,25.08
2019-03-24T13:39:54.053Z,25.05
2019-03-24T13:42:22.604Z,27.07
2019-03-24T13:44:51.075Z,28.07
2019-03-24T13:47:19.346Z,26.97
2019-03-24T13:49:47.829Z,27.95
2019-03-24T13:52:16.383Z,26.25
2019-03-24T13:54:44.825Z,27.50
2019-03-24T13:57:13.571Z,26.42
2019-03-24T13:59:41.986Z,44.88
2019-03-24T14:02:10.507Z,40.50
2019-03-24T14:04:38.845Z,84.62
2019-03-24T14:07:07.203Z,27.30
2019-03-24T14:09:35.553Z,27.90
2019-03-24T14:12:04.239Z,146.28
2019-03-24T14:14:32.580Z,37.83
2019-03-24T14:17:00.953Z,109.85
2019-03-24T14:19:29.228Z,143.20
2019-03-24T14:21:59.265Z,65.08
2019-03-24T14:26:56.826Z,32.40
2019-03-24T14:29:27.187Z,26.42
2019-03-24T14:31:55.665Z,27.52
2019-03-24T14:34:24.057Z,24.47
2019-03-24T14:36:52.517Z,23.73
2019-03-24T14:39:21.611Z,25.92
2019-03-24T14:41:50.463Z,23.67
2019-03-24T14:44:18.801Z,24.32
2019-03-24T14:46:47.257Z,26.02
2019-03-24T14:49:15.657Z,24.50
2019-03-24T14:51:44.033Z,26.35
2019-03-24T14:54:13.477Z,25.40
2019-03-24T14:56:41.757Z,24.72
2019-03-24T14:59:10.120Z,24.57
2019-03-24T15:01:38.484Z,25.23
2019-03-24T15:04:06.865Z,24.15
2019-03-24T15:06:35.209Z,24.82
2019-03-24T15:09:05.033Z,26.05
2019-03-24T15:11:33.390Z,24.63
2019-03-24T15:14:01.830Z,26.33
2019-03-24T15:16:30.357Z,25.60
2019-03-24T15:18:59.171Z,26.15
2019-03-24T15:21:28.807Z,26.45
2019-03-24T15:23:57.107Z,24.82
2019-03-24T15:26:25.434Z,25.40
2019-03-24T15:28:54.467Z,25.82
2019-03-24T15:31:22.900Z,25.12
2019-03-24T15:33:51.190Z,27.17
2019-03-24T15:36:19.583Z,26.90
2019-03-24T15:38:47.875Z,29.92
2019-03-24T15:41:18.318Z,28.45
2019-03-24T15:43:46.164Z,30.00
2019-03-24T15:46:19.432Z,28.60
2019-03-24T15:48:50.089Z,27.93
2019-03-24T15:53:45.761Z,26.42
2019-03-24T15:56:14.159Z,26.60
2019-03-24T15:58:42.434Z,27.45
2019-03-24T16:01:10.738Z,26.68
2019-03-24T16:03:39.099Z,26.33
2019-03-24T16:06:07.523Z,26.05
2019-03-24T16:08:35.837Z,25.57
2019-03-24T16:11:04.198Z,26.90
2019-03-24T16:13:32.749Z,24.20
2019-03-24T16:16:01.070Z,26.07
2019-03-24T16:18:29.432Z,26.65
2019-03-24T16:20:57.733Z,23.65
2019-03-24T16:23:26.085Z,22.80
2019-03-24T16:25:55.760Z,21.95
2019-03-24T16:28:24.331Z,21.73
2019-03-24T16:30:52.605Z,22.60
2019-03-24T16:33:20.898Z,21.93
2019-03-24T16:35:49.256Z,22.13
2019-03-24T16:38:17.701Z,21.45
2019-03-24T16:40:46.220Z,21.20
2019-03-24T16:43:15.651Z,21.82
2019-03-24T16:45:44.145Z,20.70
2019-03-24T16:48:12.735Z,19.60
2019-03-24T16:50:41.612Z,21.50
2019-03-24T16:53:10.240Z,21.80
2019-03-24T16:55:38.556Z,21.57
2019-03-24T16:58:06.922Z,22.35
2019-03-24T17:00:35.275Z,22.50
2019-03-24T17:03:03.578Z,21.05
2019-03-24T17:05:31.845Z,20.05
2019-03-24T17:08:00.139Z,21.70
2019-03-24T17:10:28.440Z,19.87
2019-03-24T17:12:56.746Z,21.60
2019-03-24T17:15:25.069Z,19.12
2019-03-24T17:17:53.503Z,20.25
2019-03-24T17:20:21.848Z,21.65
2019-03-24T17:22:50.217Z,21.62
2019-03-24T17:25:18.692Z,20.80
2019-03-24T17:27:46.971Z,21.40
2019-03-24T17:30:15.306Z,19.92
2019-03-24T17:32:44.208Z,19.98
2019-03-24T17:35:12.559Z,21.05
2019-03-24T17:37:40.954Z,21.70
2019-03-24T17:40:09.465Z,26.17
2019-03-24T17:42:37.819Z,26.68
2019-03-24T17:45:08.646Z,27.00
2019-03-24T17:47:37.012Z,26.35
2019-03-24T17:50:06.212Z,28.95
2019-03-24T17:52:34.505Z,29.37
2019-03-24T17:55:02.809Z,33.08
2019-03-24T17:57:31.155Z,34.78
2019-03-24T17:59:59.514Z,35.83
2019-03-24T18:02:27.882Z,35.25
2019-03-24T18:04:56.155Z,38.73
2019-03-24T18:07:24.500Z,39.75
2019-03-24T18:09:52.943Z,40.12
2019-03-24T18:12:21.278Z,43.80
2019-03-24T18:14:49.618Z,43.17
2019-03-24T18:17:17.929Z,42.43
2019-03-24T18:19:46.221Z,42.05
2019-03-24T18:22:14.634Z,44.60
2019-03-24T18:24:43.094Z,42.53
2019-03-24T18:27:11.443Z,41.45
2019-03-24T18:29:39.793Z,42.08
2019-03-24T18:32:08.211Z,41.30
2019-03-24T18:34:36.479Z,39.15
2019-03-24T18:37:04.920Z,36.17
2019-03-24T18:39:33.280Z,39.15
2019-03-24T18:42:16.472Z,36.68
2019-03-24T18:44:44.783Z,37.42
2019-03-24T18:47:14.058Z,39.18
2019-03-24T18:49:42.406Z,39.48
2019-03-24T18:52:10.746Z,37.08
2019-03-24T18:54:39.049Z,38.33
2019-03-24T18:57:07.320Z,37.17
2019-03-24T18:59:35.851Z,37.30
2019-03-24T19:02:04.223Z,38.88
2019-03-24T19:04:32.641Z,36.35
2019-03-24T19:07:01.045Z,37.38
2019-03-24T19:09:29.520Z,39.35
2019-03-24T19:11:57.963Z,39.33
2019-03-24T19:14:26.413Z,36.63
2019-03-24T19:16:55.006Z,35.85
2019-03-24T19:19:23.412Z,37.10
2019-03-24T19:21:51.849Z,34.30
2019-03-24T19:24:20.131Z,36.13
2019-03-24T19:26:48.602Z,36.20
2019-03-24T19:29:16.980Z,34.43
2019-03-24T19:31:45.312Z,34.88
2019-03-24T19:34:13.653Z,34.55
2019-03-24T19:36:42.143Z,32.88
2019-03-24T19:39:10.616Z,34.55
2019-03-24T19:41:39.031Z,32.88
2019-03-24T19:44:08.197Z,32.05
2019-03-24T19:46:36.484Z,33.17
2019-03-24T19:49:04.783Z,31.40
2019-03-24T19:51:33.336Z,32.80
2019-03-24T19:54:01.591Z,32.80
2019-03-24T19:56:30.004Z,34.15
2019-03-24T19:58:58.457Z,32.67
2019-03-24T20:01:26.731Z,33.10
2019-03-24T20:03:56.060Z,33.65
2019-03-24T20:06:24.451Z,32.28
2019-03-24T20:08:58.045Z,34.08
2019-03-24T20:11:26.412Z,36.17
2019-03-24T20:13:55.695Z,36.63
2019-03-24T20:16:26.288Z,36.28
2019-03-24T20:18:54.790Z,37.13
2019-03-24T20:21:26.627Z,34.13
2019-03-24T20:23:55.189Z,34.23
2019-03-24T20:26:23.618Z,35.55
2019-03-24T20:28:52.071Z,34.25
2019-03-24T20:31:20.459Z,34.23
2019-03-24T20:33:48.810Z,33.40
2019-03-24T20:36:17.214Z,33.92
2019-03-24T20:38:45.586Z,32.83
2019-03-24T20:41:13.897Z,33.55
2019-03-24T20:43:42.322Z,32.80
2019-03-24T20:46:10.624Z,30.80
2019-03-24T20:48:38.903Z,30.90
2019-03-24T20:51:07.207Z,31.50
2019-03-24T20:53:35.623Z,32.65
2019-03-24T20:56:04.648Z,31.02
2019-03-24T20:58:33.052Z,28.23
2019-03-24T21:01:02.746Z,28.73
2019-03-24T21:03:31.391Z,29.12
2019-03-24T21:06:00.710Z,29.45
2019-03-24T21:08:28.996Z,29.48
2019-03-24T21:10:57.399Z,28.20
2019-03-24T21:13:27.486Z,30.10
2019-03-24T21:18:23.586Z,27.50
2019-03-24T21:20:52.094Z,28.98
2019-03-24T21:23:29.157Z,29.27
2019-03-24T21:25:50.557Z,28.23
2019-03-24T21:28:18.879Z,29.12
2019-03-24T21:30:47.426Z,30.15
2019-03-24T21:33:15.928Z,30.92
2019-03-24T21:35:44.648Z,31.02
2019-03-24T21:38:13.186Z,29.72
2019-03-24T21:40:41.465Z,28.55
2019-03-24T21:43:09.823Z,29.30
2019-03-24T21:45:38.232Z,28.55
2019-03-24T21:48:06.614Z,27.60
2019-03-24T21:50:34.997Z,30.35
2019-03-24T21:53:04.527Z,29.72
2019-03-24T21:55:33.393Z,27.62
2019-03-24T21:58:02.005Z,27.87
2019-03-24T22:00:32.805Z,28.52
2019-03-24T22:03:01.914Z,27.85
2019-03-24T22:05:30.793Z,28.20
2019-03-24T22:08:00.143Z,27.27
2019-03-24T22:10:28.491Z,27.75
2019-03-24T22:12:56.966Z,27.30
2019-03-24T22:15:25.292Z,27.52
2019-03-24T22:17:54.131Z,28.02
2019-03-24T22:20:23.318Z,26.68
2019-03-24T22:22:51.667Z,28.50
2019-03-24T22:25:20.041Z,29.02
2019-03-24T22:27:48.295Z,28.80
2019-03-24T22:30:16.665Z,29.02
2019-03-24T22:32:45.345Z,27.20
2019-03-24T22:35:13.934Z,29.12
2019-03-24T22:37:42.547Z,29.40
2019-03-24T22:40:11.051Z,27.67
2019-03-24T22:42:39.462Z,25.62
2019-03-24T22:45:08.092Z,24.77
2019-03-24T22:47:36.997Z,25.95
2019-03-24T22:50:07.472Z,26.68
2019-03-24T22:52:35.750Z,27.95
2019-03-24T22:55:06.519Z,26.68
2019-03-24T22:57:34.851Z,26.20
2019-03-24T23:00:03.278Z,25.55
2019-03-24T23:02:32.226Z,26.93
2019-03-24T23:05:00.487Z,25.60
2019-03-24T23:07:28.799Z,25.97
2019-03-24T23:09:57.423Z,23.83
2019-03-24T23:12:25.882Z,27.13
2019-03-24T23:14:54.275Z,25.95
2019-03-24T23:17:22.647Z,24.20
2019-03-24T23:19:51.010Z,25.95
2019-03-24T23:22:19.347Z,24.82
2019-03-24T23:24:48.085Z,27.37
2019-03-24T23:27:16.366Z,26.30
2019-03-24T23:29:45.053Z,26.07
2019-03-24T23:32:13.915Z,24.95
2019-03-24T23:34:42.261Z,26.75
2019-03-24T23:37:10.801Z,26.00
2019-03-24T23:39:39.144Z,26.50
2019-03-24T23:42:07.803Z,25.08
2019-03-24T23:44:36.671Z,25.80
2019-03-24T23:47:05.556Z,27.77
2019-03-24T23:49:34.182Z,26.07
2019-03-24T23:52:02.814Z,25.72
2019-03-24T23:54:31.819Z,28.75
2019-03-24T23:57:00.923Z,27.67
2019-03-24T23:59:29.347Z,29.17
